sensor_id;sensor_type;location;lat;lon;timestamp;temperature;humidity
43414;DHT22;73638;49.676;8.606;2024-03-06T00:02:57;8.3932;72.0027
43414;DHT22;73638;49.676;8.606;2024-03-06T00:08:04;8.4707;71.8792
43414;DHT22;73638;49.676;8.606;2024-03-06T00:13:10;8.2944;71.928
43414;DHT22;73638;49.676;8.606;2024-03-06T00:18:17;8.2677;72.137
43414;DHT22;73638;49.676;8.606;2024-03-06T00:23:23;8.2597;71.7937
43414;DHT22;73638;49.676;8.606;2024-03-06T00:28:30;8.241;72.1614
43414;DHT22;73638;49.676;8.606;2024-03-06T00:33:36;8.3104;71.9036
43414;DHT22;73638;49.676;8.606;2024-03-06T00:38:43;8.1556;72.047
43414;DHT22;73638;49.676;8.606;2024-03-06T00:43:50;8.2944;71.9158
43414;DHT22;73638;49.676;8.606;2024-03-06T00:48:57;8.3238;71.7815
43414;DHT22;73638;49.676;8.606;2024-03-06T00:54:03;8.3024;70.8965
43414;DHT22;73638;49.676;8.606;2024-03-06T00:59:13;8.0941;70.8797
43414;DHT22;73638;49.676;8.606;2024-03-06T01:04:19;8.0514;70.6844
43414;DHT22;73638;49.676;8.606;2024-03-06T01:09:26;8.0648;71.519
43414;DHT22;73638;49.676;8.606;2024-03-06T01:14:32;8.241;71.6701
43414;DHT22;73638;49.676;8.606;2024-03-06T01:19:39;8.3665;71.7189
43414;DHT22;73638;49.676;8.606;2024-03-06T01:24:46;8.241;71.7815
43414;DHT22;73638;49.676;8.606;2024-03-06T01:29:52;8.3505;71.7311
43414;DHT22;73638;49.676;8.606;2024-03-06T01:34:59;8.3452;71.6091
43414;DHT22;73638;49.676;8.606;2024-03-06T01:40:06;8.2677;72.0516
43414;DHT22;73638;49.676;8.606;2024-03-06T01:45:12;8.225;71.9402
43414;DHT22;73638;49.676;8.606;2024-03-06T01:50:19;8.0861;72.3552
43414;DHT22;73638;49.676;8.606;2024-03-06T01:55:25;7.9259;72.3796
43414;DHT22;73638;49.676;8.606;2024-03-06T02:00:32;8.0648;72.5521
43414;DHT22;73638;49.676;8.606;2024-03-06T02:05:38;7.9046;72.2683
43414;DHT22;73638;49.676;8.606;2024-03-06T02:10:45;7.9046;72.4285
43414;DHT22;73638;49.676;8.606;2024-03-06T02:15:52;7.6883;71.9738
43414;DHT22;73638;49.676;8.606;2024-03-06T02:20:58;7.4426;71.5434
43414;DHT22;73638;49.676;8.606;2024-03-06T02:26:05;7.5494;71.5679
43414;DHT22;73638;49.676;8.606;2024-03-06T02:31:12;7.5334;71.9371
43414;DHT22;73638;49.676;8.606;2024-03-06T02:36:18;7.2049;72.195
43414;DHT22;73638;49.676;8.606;2024-03-06T02:41:24;7.3251;72.4163
43414;DHT22;73638;49.676;8.606;2024-03-06T02:46:31;7.3598;72.1584
43414;DHT22;73638;49.676;8.606;2024-03-06T02:51:38;7.3945;72.343
43414;DHT22;73638;49.676;8.606;2024-03-06T02:56:44;7.4987;72.4285
43414;DHT22;73638;49.676;8.606;2024-03-06T03:01:51;7.5494;72.3674
43414;DHT22;73638;49.676;8.606;2024-03-06T03:06:57;7.2904;72.5017
43414;DHT22;73638;49.676;8.606;2024-03-06T03:12:04;7.5761;72.5643
43414;DHT22;73638;49.676;8.606;2024-03-06T03:17:11;7.4933;72.6253
43414;DHT22;73638;49.676;8.606;2024-03-06T03:22:17;7.472;72.5521
43414;DHT22;73638;49.676;8.606;2024-03-06T03:27:24;7.3945;72.4529
43414;DHT22;73638;49.676;8.606;2024-03-06T03:32:30;7.3732;72.0348
43414;DHT22;73638;49.676;8.606;2024-03-06T03:37:37;7.3945;71.5312
43414;DHT22;73638;49.676;8.606;2024-03-06T03:42:43;7.0233;71.3466
43414;DHT22;73638;49.676;8.606;2024-03-06T03:47:50;7.1355;71.4336
43414;DHT22;73638;49.676;8.606;2024-03-06T03:52:57;6.9192;72.1828
43414;DHT22;73638;49.676;8.606;2024-03-06T03:58:03;7.0874;72.3919
43414;DHT22;73638;49.676;8.606;2024-03-06T04:03:10;7.3304;72.6375
43414;DHT22;73638;49.676;8.606;2024-03-06T04:08:17;7.3598;72.3552
43414;DHT22;73638;49.676;8.606;2024-03-06T04:13:23;7.3678;71.667
43414;DHT22;73638;49.676;8.606;2024-03-06T04:18:31;7.2049;71.8013
43414;DHT22;73638;49.676;8.606;2024-03-06T04:23:37;7.2957;71.5068
43414;DHT22;73638;49.676;8.606;2024-03-06T04:28:43;7.0527;71.1513
43414;DHT22;73638;49.676;8.606;2024-03-06T04:33:49;7.1782;71.1376
43414;DHT22;73638;49.676;8.606;2024-03-06T04:38:56;6.759;71.2306
43414;DHT22;73638;49.676;8.606;2024-03-06T04:44:03;6.8711;71.371
43414;DHT22;73638;49.676;8.606;2024-03-06T04:49:09;6.9886;72.1706
43414;DHT22;73638;49.676;8.606;2024-03-06T04:54:16;7.1649;72.2194
43414;DHT22;73638;49.676;8.606;2024-03-06T04:59:23;7.1569;72.2805
43414;DHT22;73638;49.676;8.606;2024-03-06T06:00:42;7.3465;72.9564
43414;DHT22;73638;49.676;8.606;2024-03-06T06:05:49;7.4372;73.0678
43414;DHT22;73638;49.676;8.606;2024-03-06T06:10:55;7.5547;72.5139
43414;DHT22;73638;49.676;8.606;2024-03-06T06:16:02;7.4159;71.8761
43414;DHT22;73638;49.676;8.606;2024-03-06T06:21:09;7.3732;71.4092
43414;DHT22;73638;49.676;8.606;2024-03-06T06:26:15;7.4025;71.4336
43414;DHT22;73638;49.676;8.606;2024-03-06T06:31:22;7.4372;71.3466
43414;DHT22;73638;49.676;8.606;2024-03-06T06:36:28;7.4639;71.5801
43414;DHT22;73638;49.676;8.606;2024-03-06T06:41:35;7.5975;71.3466
43414;DHT22;73638;49.676;8.606;2024-03-06T06:46:42;7.4159;70.9911
43414;DHT22;73638;49.676;8.606;2024-03-06T06:51:49;7.4426;71.8135
43414;DHT22;73638;49.676;8.606;2024-03-06T06:56:55;7.715;71.986
43414;DHT22;73638;49.676;8.606;2024-03-06T07:02:02;8.0381;71.838
43414;DHT22;73638;49.676;8.606;2024-03-06T07:07:08;8.0167;72.1218
43414;DHT22;73638;49.676;8.606;2024-03-06T07:12:15;8.2116;71.9646
43414;DHT22;73638;49.676;8.606;2024-03-06T07:17:22;8.5882;71.8792
43414;DHT22;73638;49.676;8.606;2024-03-06T07:22:29;8.679;71.6457
43414;DHT22;73638;49.676;8.606;2024-03-06T07:27:36;8.7003;71.6701
43414;DHT22;73638;49.676;8.606;2024-03-06T07:32:43;8.8125;71.4733
43414;DHT22;73638;49.676;8.606;2024-03-06T07:37:49;9.0368;71.2642
43414;DHT22;73638;49.676;8.606;2024-03-06T07:42:56;9.0501;71.0307
43414;DHT22;73638;49.676;8.606;2024-03-06T07:48:03;9.2531;70.6874
43414;DHT22;73638;49.676;8.606;2024-03-06T07:53:09;9.3572;70.5394
43414;DHT22;73638;49.676;8.606;2024-03-06T07:58:16;9.6563;70.0664
43414;DHT22;73638;49.676;8.606;2024-03-06T08:03:23;9.7551;69.7704
43414;DHT22;73638;49.676;8.606;2024-03-06T08:08:30;9.902;69.427
43414;DHT22;73638;49.676;8.606;2024-03-06T08:13:37;9.902;68.8624
43414;DHT22;73638;49.676;8.606;2024-03-06T08:18:43;10.0275;69.1081
43414;DHT22;73638;49.676;8.606;2024-03-06T08:23:51;10.0141;68.8121
43414;DHT22;73638;49.676;8.606;2024-03-06T08:28:57;10.1049;68.9845
43414;DHT22;73638;49.676;8.606;2024-03-06T08:34:04;10.0702;69.0837
43414;DHT22;73638;49.676;8.606;2024-03-06T08:39:10;9.9847;69.3172
43414;DHT22;73638;49.676;8.606;2024-03-06T08:44:17;9.9847;69.3172
43414;DHT22;73638;49.676;8.606;2024-03-06T08:49:24;10.0408;70.0908
43414;DHT22;73638;49.676;8.606;2024-03-06T08:54:31;10.1263;70.1762
43414;DHT22;73638;49.676;8.606;2024-03-06T08:59:38;10.0195;69.6239
43414;DHT22;73638;49.676;8.606;2024-03-06T09:04:45;9.9928;69.6483
43414;DHT22;73638;49.676;8.606;2024-03-06T09:09:51;9.8672;69.6971
43414;DHT22;73638;49.676;8.606;2024-03-06T09:14:57;10.0355;69.9794
43414;DHT22;73638;49.676;8.606;2024-03-06T09:20:10;10.2651;69.7841
43414;DHT22;73638;49.676;8.606;2024-03-06T09:25:11;10.4894;69.6361
43414;DHT22;73638;49.676;8.606;2024-03-06T09:30:18;11.0262;69.0745
43414;DHT22;73638;49.676;8.606;2024-03-06T09:35:25;11.181;68.571
43414;DHT22;73638;49.676;8.606;2024-03-06T09:40:32;11.2425;67.7592
43414;DHT22;73638;49.676;8.606;2024-03-06T09:45:39;11.2932;67.9316
43414;DHT22;73638;49.676;8.606;2024-03-06T09:50:46;11.3199;67.5257
43414;DHT22;73638;49.676;8.606;2024-03-06T09:55:53;11.2718;67.7592
43414;DHT22;73638;49.676;8.606;2024-03-06T10:01:00;11.5015;67.7714
43414;DHT22;73638;49.676;8.606;2024-03-06T10:06:11;11.6136;67.2679
43414;DHT22;73638;49.676;8.606;2024-03-06T10:11:13;11.8433;67.0344
43414;DHT22;73638;49.676;8.606;2024-03-06T10:16:20;11.9821;66.1875
43414;DHT22;73638;49.676;8.606;2024-03-06T10:21:31;12.2278;66.334
43414;DHT22;73638;49.676;8.606;2024-03-06T10:26:34;12.1023;66.1494
43414;DHT22;73638;49.676;8.606;2024-03-06T10:31:40;12.2145;66.7033
43414;DHT22;73638;49.676;8.606;2024-03-06T10:36:51;12.2839;66.8132
43414;DHT22;73638;49.676;8.606;2024-03-06T10:41:55;12.0943;66.6545
43414;DHT22;73638;49.676;8.606;2024-03-06T10:47:03;12.0542;66.7155
43414;DHT22;73638;49.676;8.606;2024-03-06T10:52:09;12.0809;66.8376
43414;DHT22;73638;49.676;8.606;2024-03-06T10:57:15;12.3266;66.4866
43414;DHT22;73638;49.676;8.606;2024-03-06T11:02:23;12.5269;65.922
43414;DHT22;73638;49.676;8.606;2024-03-06T11:07:29;12.7806;65.7008
43414;DHT22;73638;49.676;8.606;2024-03-06T11:12:37;13.2132;65.3193
43414;DHT22;73638;49.676;8.606;2024-03-06T11:17:43;13.3867;64.1031
43414;DHT22;73638;49.676;8.606;2024-03-06T11:23:07;13.5283;62.6047
43414;DHT22;73638;49.676;8.606;2024-03-06T11:28:05;13.6324;62.9358
43414;DHT22;73638;49.676;8.606;2024-03-06T11:33:04;13.7018;62.3255
43414;DHT22;73638;49.676;8.606;2024-03-06T11:38:11;13.7232;62.1408
43414;DHT22;73638;49.676;8.606;2024-03-06T11:43:25;13.6938;60.8133
43414;DHT22;73638;49.676;8.606;2024-03-06T11:48:25;13.8006;59.6094
43414;DHT22;73638;49.676;8.606;2024-03-06T11:53:33;13.8006;58.8357
43414;DHT22;73638;49.676;8.606;2024-03-06T11:58:38;14.0517;59.4507
43414;DHT22;73638;49.676;8.606;2024-03-06T12:03:46;14.1638;58.8357
43414;DHT22;73638;49.676;8.606;2024-03-06T12:08:52;14.2733;58.1109
43414;DHT22;73638;49.676;8.606;2024-03-06T12:13:59;14.1638;58.2208
43414;DHT22;73638;49.676;8.606;2024-03-06T12:19:06;14.3641;58.4054
43414;DHT22;73638;49.676;8.606;2024-03-06T12:24:16;14.2947;57.9995
43414;DHT22;73638;49.676;8.606;2024-03-06T12:29:20;14.4282;58.3078
43414;DHT22;73638;49.676;8.606;2024-03-06T12:34:27;14.3587;58.5534
43414;DHT22;73638;49.676;8.606;2024-03-06T12:39:33;14.2332;58.7365
43414;DHT22;73638;49.676;8.606;2024-03-06T12:44:41;14.1905;59.4629
43414;DHT22;73638;49.676;8.606;2024-03-06T12:49:47;14.0169;59.9039
43414;DHT22;73638;49.676;8.606;2024-03-06T12:54:53;13.9662;60.0275
43414;DHT22;73638;49.676;8.606;2024-03-06T13:00:00;14.1077;60.0641
43414;DHT22;73638;49.676;8.606;2024-03-06T13:05:07;14.0997;59.7818
43414;DHT22;73638;49.676;8.606;2024-03-06T13:10:15;14.1131;59.8672
43414;DHT22;73638;49.676;8.606;2024-03-06T13:15:21;13.9956;59.7086
43414;DHT22;73638;49.676;8.606;2024-03-06T13:20:28;14.1825;60.0885
43414;DHT22;73638;49.676;8.606;2024-03-06T13:25:35;14.3027;58.4176
43414;DHT22;73638;49.676;8.606;2024-03-06T13:30:42;14.3027;59.0936
43414;DHT22;73638;49.676;8.606;2024-03-06T13:35:49;14.2466;58.8113
43414;DHT22;73638;49.676;8.606;2024-03-06T13:40:56;14.2172;59.2905
43414;DHT22;73638;49.676;8.606;2024-03-06T13:46:03;14.1211;59.1669
43414;DHT22;73638;49.676;8.606;2024-03-06T13:51:10;14.2172;58.9578
43414;DHT22;73638;49.676;8.606;2024-03-06T13:56:16;14.2599;58.7121
43414;DHT22;73638;49.676;8.606;2024-03-06T14:01:23;14.3507;58.5657
43414;DHT22;73638;49.676;8.606;2024-03-06T14:06:30;14.2947;58.7365
43414;DHT22;73638;49.676;8.606;2024-03-06T14:11:37;14.2252;57.7539
43414;DHT22;73638;49.676;8.606;2024-03-06T14:16:44;14.2252;57.9141
43414;DHT22;73638;49.676;8.606;2024-03-06T14:21:51;14.2252;57.9507
43414;DHT22;73638;49.676;8.606;2024-03-06T14:27:00;14.1691;57.644
43414;DHT22;73638;49.676;8.606;2024-03-06T14:32:07;14.1211;57.8286
43414;DHT22;73638;49.676;8.606;2024-03-06T14:37:14;14.0517;58.1964
43414;DHT22;73638;49.676;8.606;2024-03-06T14:42:21;14.0089;58.0362
43414;DHT22;73638;49.676;8.606;2024-03-06T14:47:28;13.9662;57.435
43414;DHT22;73638;49.676;8.606;2024-03-06T14:52:34;13.9181;57.8286
43414;DHT22;73638;49.676;8.606;2024-03-06T14:57:41;13.854;57.9019
43414;DHT22;73638;49.676;8.606;2024-03-06T15:02:48;13.7499;57.8408
43414;DHT22;73638;49.676;8.606;2024-03-06T15:07:54;13.9181;57.7905
43414;DHT22;73638;49.676;8.606;2024-03-06T15:13:01;13.9101;57.8531
43414;DHT22;73638;49.676;8.606;2024-03-06T15:18:08;13.8701;58.233
43414;DHT22;73638;49.676;8.606;2024-03-06T15:23:15;13.8354;58.2956
43414;DHT22;73638;49.676;8.606;2024-03-06T15:28:22;13.7446;58.5901
43414;DHT22;73638;49.676;8.606;2024-03-06T15:33:29;13.7285;58.5534
43414;DHT22;73638;49.676;8.606;2024-03-06T15:38:36;13.8193;58.7365
43414;DHT22;73638;49.676;8.606;2024-03-06T15:43:42;13.7232;58.8357
43414;DHT22;73638;49.676;8.606;2024-03-06T15:48:49;13.555;59.115
43414;DHT22;73638;49.676;8.606;2024-03-06T15:53:57;13.5122;59.3851
43414;DHT22;73638;49.676;8.606;2024-03-06T15:59:02;13.4428;59.4827
43414;DHT22;73638;49.676;8.606;2024-03-06T16:04:10;13.352;59.6307
43414;DHT22;73638;49.676;8.606;2024-03-06T16:09:16;13.2559;60.1831
43414;DHT22;73638;49.676;8.606;2024-03-06T16:14:24;13.1785;60.8225
43414;DHT22;73638;49.676;8.606;2024-03-06T16:19:39;13.2692;60.589
43414;DHT22;73638;49.676;8.606;2024-03-06T16:24:36;13.2746;60.589
43414;DHT22;73638;49.676;8.606;2024-03-06T16:29:43;13.2906;60.5768
43414;DHT22;73638;49.676;8.606;2024-03-06T16:34:51;13.2692;60.6744
43414;DHT22;73638;49.676;8.606;2024-03-06T16:39:57;13.1277;60.4532
43414;DHT22;73638;49.676;8.606;2024-03-06T16:45:04;13.0877;60.9079
43414;DHT22;73638;49.676;8.606;2024-03-06T16:50:10;13.0797;60.7614
43414;DHT22;73638;49.676;8.606;2024-03-06T16:55:17;12.9675;60.6989
43414;DHT22;73638;49.676;8.606;2024-03-06T17:00:23;12.8553;60.9201
43414;DHT22;73638;49.676;8.606;2024-03-06T17:05:30;12.7459;61.0925
43414;DHT22;73638;49.676;8.606;2024-03-06T17:10:37;12.7512;61.3138
43414;DHT22;73638;49.676;8.606;2024-03-06T17:15:43;12.7592;61.4618
43414;DHT22;73638;49.676;8.606;2024-03-06T17:20:50;12.7165;61.1048
43414;DHT22;73638;49.676;8.606;2024-03-06T17:25:57;12.7993;61.4862
43414;DHT22;73638;49.676;8.606;2024-03-06T17:31:04;12.7512;61.4862
43414;DHT22;73638;49.676;8.606;2024-03-06T17:36:10;12.6951;61.7441
43414;DHT22;73638;49.676;8.606;2024-03-06T17:41:17;12.7379;61.7197
43414;DHT22;73638;49.676;8.606;2024-03-06T17:46:24;12.6043;61.9287
43414;DHT22;73638;49.676;8.606;2024-03-06T17:51:32;12.6738;62.3957
43414;DHT22;73638;49.676;8.606;2024-03-06T17:56:38;12.599;62.4323
43414;DHT22;73638;49.676;8.606;2024-03-06T18:01:45;12.4361;62.1866
43414;DHT22;73638;49.676;8.606;2024-03-06T18:06:51;12.3827;62.5925
43414;DHT22;73638;49.676;8.606;2024-03-06T18:11:59;12.2198;63.5935
43414;DHT22;73638;49.676;8.606;2024-03-06T18:17:05;12.2919;63.8025
43414;DHT22;73638;49.676;8.606;2024-03-06T18:22:12;12.2759;63.9384
43414;DHT22;73638;49.676;8.606;2024-03-06T18:27:19;12.3827;63.8575
43414;DHT22;73638;49.676;8.606;2024-03-06T18:32:26;12.1504;64.5274
43414;DHT22;73638;49.676;8.606;2024-03-06T18:37:33;12.1717;64.6754
43414;DHT22;73638;49.676;8.606;2024-03-06T18:42:39;12.1157;64.9454
43414;DHT22;73638;49.676;8.606;2024-03-06T18:47:46;12.0035;65.5482
43414;DHT22;73638;49.676;8.606;2024-03-06T18:52:53;11.8219;65.8427
43414;DHT22;73638;49.676;8.606;2024-03-06T18:58:00;11.886;65.8671
43414;DHT22;73638;49.676;8.606;2024-03-06T19:03:07;11.7311;66.1997
43414;DHT22;73638;49.676;8.606;2024-03-06T19:08:13;11.4748;66.3584
43414;DHT22;73638;49.676;8.606;2024-03-06T19:13:20;11.4801;66.273
43414;DHT22;73638;49.676;8.606;2024-03-06T19:18:32;11.4668;66.5431
43414;DHT22;73638;49.676;8.606;2024-03-06T19:23:34;11.4748;66.2852
43414;DHT22;73638;49.676;8.606;2024-03-06T19:28:41;11.4881;66.1372
43414;DHT22;73638;49.676;8.606;2024-03-06T19:33:48;11.5362;65.9159
43414;DHT22;73638;49.676;8.606;2024-03-06T19:38:54;11.4935;65.3025
43414;DHT22;73638;49.676;8.606;2024-03-06T19:44:01;11.5282;64.9943
43414;DHT22;73638;49.676;8.606;2024-03-06T19:49:08;11.5709;65.0324
43414;DHT22;73638;49.676;8.606;2024-03-06T19:54:15;11.4748;64.651
43414;DHT22;73638;49.676;8.606;2024-03-06T19:59:32;11.4935;63.8392
43414;DHT22;73638;49.676;8.606;2024-03-06T20:04:28;11.4588;63.6927
43414;DHT22;73638;49.676;8.606;2024-03-06T20:09:35;11.4588;63.7903
43414;DHT22;73638;49.676;8.606;2024-03-06T20:14:42;11.3413;63.36
43414;DHT22;73638;49.676;8.606;2024-03-06T20:19:48;11.2024;63.4104
43414;DHT22;73638;49.676;8.606;2024-03-06T20:24:55;11.1383;63.1647
43414;DHT22;73638;49.676;8.606;2024-03-06T20:30:03;11.0742;63.7537
43414;DHT22;73638;49.676;8.606;2024-03-06T20:35:10;11.0742;64.4541
43414;DHT22;73638;49.676;8.606;2024-03-06T20:40:16;11.1517;63.7415
43414;DHT22;73638;49.676;8.606;2024-03-06T20:45:22;11.0342;63.1266
43414;DHT22;73638;49.676;8.606;2024-03-06T20:50:29;11.0342;62.9191
43414;DHT22;73638;49.676;8.606;2024-03-06T20:55:35;11.0208;63.3234
43414;DHT22;73638;49.676;8.606;2024-03-06T21:00:43;11.1597;63.1022
43414;DHT22;73638;49.676;8.606;2024-03-06T21:05:50;11.1944;62.8565
43414;DHT22;73638;49.676;8.606;2024-03-06T21:10:56;11.1383;62.4384
43414;DHT22;73638;49.676;8.606;2024-03-06T21:16:03;11.0689;62.6352
43414;DHT22;73638;49.676;8.606;2024-03-06T21:21:09;11.0262;62.3041
43414;DHT22;73638;49.676;8.606;2024-03-06T21:26:16;10.8793;62.5208
43414;DHT22;73638;49.676;8.606;2024-03-06T21:31:23;10.8927;62.8046
43414;DHT22;73638;49.676;8.606;2024-03-06T21:36:29;10.7965;62.8412
43414;DHT22;73638;49.676;8.606;2024-03-06T21:41:37;10.8232;62.5711
43414;DHT22;73638;49.676;8.606;2024-03-06T21:46:43;10.7618;63.2212
43414;DHT22;73638;49.676;8.606;2024-03-06T21:51:50;10.9007;63.3936
43414;DHT22;73638;49.676;8.606;2024-03-06T21:56:57;10.8232;63.2715
43414;DHT22;73638;49.676;8.606;2024-03-06T22:02:05;10.7671;63.0259
43414;DHT22;73638;49.676;8.606;2024-03-06T22:07:10;10.6149;62.829
43414;DHT22;73638;49.676;8.606;2024-03-06T22:12:17;10.6764;62.829
43414;DHT22;73638;49.676;8.606;2024-03-06T22:17:23;10.4253;62.6566
43414;DHT22;73638;49.676;8.606;2024-03-06T22:22:30;10.4601;62.9755
43414;DHT22;73638;49.676;8.606;2024-03-06T22:27:37;10.2731;63.6881
43414;DHT22;73638;49.676;8.606;2024-03-06T22:32:44;10.1102;63.3448
43414;DHT22;73638;49.676;8.606;2024-03-06T22:37:50;10.161;63.6393
43414;DHT22;73638;49.676;8.606;2024-03-06T22:42:57;9.9714;63.6271
43414;DHT22;73638;49.676;8.606;2024-03-06T22:48:05;9.9447;63.357
43414;DHT22;73638;49.676;8.606;2024-03-06T22:53:10;9.7551;63.7995
43414;DHT22;73638;49.676;8.606;2024-03-06T22:58:17;9.7551;63.7751
43414;DHT22;73638;49.676;8.606;2024-03-06T23:03:24;9.7124;64.033
43414;DHT22;73638;49.676;8.606;2024-03-06T23:08:30;9.7124;63.7873
43414;DHT22;73638;49.676;8.606;2024-03-06T23:13:37;9.5655;64.2985
43414;DHT22;73638;49.676;8.606;2024-03-06T23:18:46;9.5308;64.1993
43414;DHT22;73638;49.676;8.606;2024-03-06T23:23:53;9.5735;64.1794
43414;DHT22;73638;49.676;8.606;2024-03-06T23:29:01;9.4961;64.7898
43414;DHT22;73638;49.676;8.606;2024-03-06T23:34:07;9.5174;64.9241
43414;DHT22;73638;49.676;8.606;2024-03-06T23:39:14;9.3225;64.9485
43414;DHT22;73638;49.676;8.606;2024-03-06T23:44:21;9.44;64.802
43414;DHT22;73638;49.676;8.606;2024-03-06T23:49:28;9.2744;65.182
43414;DHT22;73638;49.676;8.606;2024-03-06T23:54:34;9.4266;65.0965
43414;DHT22;73638;49.676;8.606;2024-03-06T23:59:42;9.189;64.9607
